Time;durP1;ratioP1;P1;durP2;ratioP2;P2;SDS_P1;SDS_P2;PMS_P1;PMS_P2;Temp;Humidity;BMP_temperature;BMP_pressure;BME280_temperature;BME280_humidity;BME280_pressure;Samples;Min_cycle;Max_cycle;Signal;HPM_P1;HPM_P2
2022/09/04 00:02:32;;;;;;;14.07;9.50;;;20.10;62.60;;;;;;5072797;28;20021;-73
2022/09/04 00:05:14;;;;;;;14.00;9.05;;;20.20;62.60;;;;;;5067661;28;20037;-73
2022/09/04 00:07:51;;;;;;;14.27;9.05;;;20.30;63.10;;;;;;5072800;28;20017;-73
2022/09/04 00:10:21;;;;;;;14.05;8.95;;;20.20;63.30;;;;;;5072625;28;20032;-73
2022/09/04 00:13:03;;;;;;;21.90;9.63;;;20.10;63.20;;;;;;5072591;28;20029;-73
2022/09/04 00:15:35;;;;;;;11.60;8.55;;;20.10;62.70;;;;;;5072687;28;20021;-73
2022/09/04 00:18:35;;;;;;;14.18;9.38;;;20.00;62.20;;;;;;5072649;28;20029;-72
2022/09/04 00:21:20;;;;;;;15.43;9.02;;;20.00;62.40;;;;;;5072561;28;20093;-73
2022/09/04 00:23:58;;;;;;;13.52;9.00;;;19.90;62.80;;;;;;5072659;28;20013;-73
2022/09/04 00:26:53;;;;;;;14.75;9.07;;;19.90;64.00;;;;;;5072468;28;20021;-72
2022/09/04 00:29:39;;;;;;;11.45;8.73;;;19.90;62.90;;;;;;5074443;28;20032;-73
2022/09/04 00:32:20;;;;;;;11.23;7.88;;;19.90;63.50;;;;;;5076166;28;20549;-72
2022/09/04 00:35:00;;;;;;;11.35;7.63;;;19.90;64.10;;;;;;5075930;28;20025;-73
2022/09/04 00:37:37;;;;;;;10.85;8.60;;;19.80;65.40;;;;;;5076065;28;20103;-73
2022/09/04 00:40:13;;;;;;;11.82;7.90;;;19.80;65.30;;;;;;5075870;28;20029;-73
2022/09/04 00:43:05;;;;;;;11.10;8.15;;;19.70;66.40;;;;;;5075717;28;20063;-73
2022/09/04 00:45:34;;;;;;;;;;;19.70;65.50;;;;;;5076228;28;20100;-73
2022/09/04 00:48:36;;;;;;;11.57;8.07;;;19.90;65.40;;;;;;5075834;28;19904;-73
2022/09/04 00:51:14;;;;;;;12.40;7.85;;;19.80;65.90;;;;;;5075812;28;20055;-73
2022/09/04 00:54:11;;;;;;;10.60;7.40;;;19.70;65.10;;;;;;5075666;28;20032;-73
2022/09/04 00:56:55;;;;;;;10.07;7.47;;;19.70;65.30;;;;;;5075571;28;20033;-73
2022/09/04 00:59:45;;;;;;;10.20;8.05;;;19.70;65.20;;;;;;5075345;28;20060;-73
2022/09/04 01:02:30;;;;;;;10.07;7.53;;;19.70;64.00;;;;;;5075372;28;20032;-73
2022/09/04 01:05:23;;;;;;;11.13;7.35;;;19.60;64.00;;;;;;5075414;28;20071;-73
2022/09/04 01:08:07;;;;;;;11.18;7.63;;;19.60;64.50;;;;;;5075512;28;20028;-73
2022/09/04 01:10:44;;;;;;;11.38;7.75;;;19.60;64.60;;;;;;5075432;28;20035;-73
2022/09/04 01:13:32;;;;;;;12.13;7.70;;;19.70;64.80;;;;;;5075394;28;20112;-73
2022/09/04 01:16:06;;;;;;;10.85;7.93;;;19.50;64.60;;;;;;5075326;28;20112;-73
2022/09/04 01:18:37;;;;;;;10.75;7.07;;;19.50;65.10;;;;;;5075184;28;20049;-73
2022/09/04 01:21:13;;;;;;;9.60;7.32;;;19.50;65.80;;;;;;5075027;28;20439;-73
2022/09/04 01:23:59;;;;;;;10.68;7.10;;;19.50;66.10;;;;;;5075083;28;20074;-73
2022/09/04 01:26:47;;;;;;;9.73;7.03;;;19.40;65.20;;;;;;5075166;28;20056;-73
2022/09/04 01:30:02;;;;;;;10.57;6.93;;;19.50;65.70;;;;;;5074839;28;20492;-73
2022/09/04 01:32:34;;;;;;;9.57;7.18;;;19.50;65.50;;;;;;5053204;28;20025;-73
2022/09/04 01:35:05;;;;;;;10.55;7.10;;;19.40;66.20;;;;;;5053175;28;20030;-73
2022/09/04 01:37:55;;;;;;;8.73;6.97;;;19.50;66.40;;;;;;5066580;28;20500;-73
2022/09/04 01:40:47;;;;;;;10.07;7.32;;;19.50;66.40;;;;;;5074624;28;20058;-73
2022/09/04 01:43:19;;;;;;;10.27;6.88;;;19.60;67.10;;;;;;5074756;28;20111;-73
2022/09/04 01:46:23;;;;;;;9.23;6.38;;;19.70;66.20;;;;;;5074700;28;20028;-73
2022/09/04 01:48:54;;;;;;;9.30;6.68;;;19.60;66.40;;;;;;5074560;28;20033;-73
2022/09/04 01:51:40;;;;;;;10.05;7.05;;;19.50;65.90;;;;;;5074635;28;20029;-73
2022/09/04 01:54:35;;;;;;;8.93;6.57;;;19.50;66.30;;;;;;5074607;28;20088;-73
2022/09/04 01:57:19;;;;;;;10.38;6.72;;;19.40;66.20;;;;;;5074338;28;20040;-73
2022/09/04 02:00:07;;;;;;;9.40;6.65;;;19.30;66.30;;;;;;5074205;28;20049;-73
2022/09/04 02:02:42;;;;;;;8.95;6.53;;;19.20;66.10;;;;;;5074399;28;20051;-73
2022/09/04 02:05:19;;;;;;;9.65;7.20;;;19.20;66.30;;;;;;5074416;28;20041;-73
2022/09/04 02:07:50;;;;;;;9.63;7.07;;;19.20;66.00;;;;;;5074284;28;20040;-73
2022/09/04 02:10:38;;;;;;;9.30;6.78;;;19.10;66.40;;;;;;5074162;28;20037;-73
2022/09/04 02:13:13;;;;;;;9.50;7.60;;;19.00;66.30;;;;;;5063457;28;20108;-73
2022/09/04 02:15:57;;;;;;;9.57;6.68;;;19.00;66.60;;;;;;5074072;28;20017;-73
2022/09/04 02:18:44;;;;;;;10.18;6.78;;;19.10;67.60;;;;;;5074025;28;20104;-73
2022/09/04 02:21:19;;;;;;;11.85;7.65;;;19.00;67.10;;;;;;5073892;28;20040;-73
2022/09/04 02:24:08;;;;;;;9.65;6.97;;;18.90;67.10;;;;;;5074061;28;20021;-73
2022/09/04 02:26:59;;;;;;;10.77;7.22;;;18.90;67.60;;;;;;5069774;28;20025;-73
2022/09/04 02:29:43;;;;;;;10.38;6.88;;;19.10;67.40;;;;;;5073767;28;20031;-73
2022/09/04 02:32:36;;;;;;;10.13;7.07;;;19.00;67.20;;;;;;5073921;28;20089;-73
2022/09/04 02:35:20;;;;;;;9.52;6.65;;;19.00;67.40;;;;;;5071284;28;20037;-73
2022/09/04 02:38:15;;;;;;;9.80;7.15;;;19.00;67.80;;;;;;5073764;28;20028;-73
2022/09/04 02:41:10;;;;;;;11.13;7.57;;;19.10;67.80;;;;;;5073702;28;20059;-73
2022/09/04 02:44:05;;;;;;;11.40;7.55;;;19.00;68.40;;;;;;5073735;28;20021;-73
2022/09/04 02:47:03;;;;;;;11.13;6.88;;;18.90;69.00;;;;;;5073583;28;20025;-73
2022/09/04 02:49:50;;;;;;;9.98;7.00;;;18.90;68.90;;;;;;5073545;28;20032;-73
2022/09/04 02:52:54;;;;;;;13.18;6.70;;;18.90;69.10;;;;;;5072839;28;20041;-73
2022/09/04 02:55:43;;;;;;;10.02;6.85;;;18.90;69.40;;;;;;5073399;28;20032;-73
2022/09/04 02:58:18;;;;;;;9.38;6.80;;;18.80;68.80;;;;;;5073406;28;20017;-73
2022/09/04 03:01:13;;;;;;;10.45;6.82;;;18.70;68.90;;;;;;5073074;28;20132;-73
2022/09/04 03:03:50;;;;;;;9.10;6.80;;;18.80;69.10;;;;;;5073306;28;20091;-73
2022/09/04 03:06:39;;;;;;;11.93;7.43;;;18.70;69.20;;;;;;5073426;28;20036;-73
2022/09/04 03:09:11;;;;;;;11.05;7.63;;;18.70;69.50;;;;;;5073290;28;20096;-73
2022/09/04 03:11:42;;;;;;;13.77;7.77;;;18.60;69.50;;;;;;5073397;28;20078;-73
2022/09/04 03:14:38;;;;;;;11.35;7.35;;;18.60;69.60;;;;;;5073214;28;20438;-73
2022/09/04 03:17:38;;;;;;;9.85;7.40;;;18.70;69.80;;;;;;5073287;28;20029;-73
2022/09/04 03:20:13;;;;;;;12.20;8.05;;;18.70;70.00;;;;;;5068556;28;20060;-73
2022/09/04 03:22:46;;;;;;;9.32;7.25;;;18.70;69.70;;;;;;5073078;28;20017;-73
2022/09/04 03:25:32;;;;;;;12.05;7.10;;;18.90;69.60;;;;;;5073109;28;20017;-73
2022/09/04 03:27:57;;;;;;;10.10;6.60;;;18.90;69.30;;;;;;5072983;28;20036;-73
2022/09/04 03:30:25;;;;;;;10.98;6.72;;;19.00;69.10;;;;;;5072997;28;20025;-73
2022/09/04 03:33:08;;;;;;;11.82;7.35;;;19.00;68.40;;;;;;5073000;28;20032;-73
2022/09/04 03:35:33;;;;;;;10.82;7.18;;;18.90;68.50;;;;;;5072991;28;20021;-73
2022/09/04 03:38:08;;;;;;;11.45;7.22;;;18.80;68.60;;;;;;5072932;28;20029;-73
2022/09/04 03:41:05;;;;;;;9.27;7.07;;;18.70;68.70;;;;;;5072923;28;20025;-73
2022/09/04 03:43:38;;;;;;;10.07;6.65;;;18.80;68.90;;;;;;5072961;28;20028;-73
2022/09/04 03:46:16;;;;;;;9.15;6.40;;;18.80;69.30;;;;;;5072903;28;20021;-73
2022/09/04 03:48:57;;;;;;;9.18;6.35;;;18.70;69.00;;;;;;5073013;28;20029;-73
2022/09/04 03:51:42;;;;;;;9.02;6.70;;;18.60;69.00;;;;;;5072768;28;20032;-73
2022/09/04 03:54:29;;;;;;;10.80;7.22;;;18.50;69.40;;;;;;5072814;28;20028;-73
2022/09/04 03:57:13;;;;;;;12.57;6.60;;;18.50;69.60;;;;;;5072750;28;20032;-73
2022/09/04 04:00:19;;;;;;;9.98;5.85;;;18.50;69.50;;;;;;5072569;28;20056;-73
2022/09/04 04:03:08;;;;;;;9.15;6.88;;;18.70;69.50;;;;;;5073879;28;20029;-73
2022/09/04 04:06:06;;;;;;;11.85;7.72;;;18.80;69.60;;;;;;5076684;28;20025;-73
2022/09/04 04:08:55;;;;;;;11.27;7.40;;;18.80;69.30;;;;;;5076656;28;20032;-73
2022/09/04 04:11:23;;;;;;;8.90;6.63;;;18.90;69.60;;;;;;5076615;28;20024;-73
2022/09/04 04:14:18;;;;;;;8.43;6.28;;;18.90;69.20;;;;;;5076384;28;20021;-73
2022/09/04 04:16:58;;;;;;;9.50;6.70;;;18.80;68.60;;;;;;5072220;28;20067;-73
2022/09/04 04:19:27;;;;;;;11.45;6.93;;;18.70;68.40;;;;;;5076452;28;20025;-73
2022/09/04 04:22:20;;;;;;;10.43;6.50;;;18.60;69.00;;;;;;5076134;28;20099;-73
2022/09/04 04:25:19;;;;;;;8.48;6.30;;;18.40;69.40;;;;;;5076210;28;20029;-73
2022/09/04 04:28:10;;;;;;;8.30;6.03;;;18.30;69.60;;;;;;5076298;28;20028;-73
2022/09/04 04:30:49;;;;;;;9.70;5.63;;;18.20;69.90;;;;;;5076009;28;20484;-73
2022/09/04 04:33:35;;;;;;;9.50;6.47;;;18.20;69.80;;;;;;5076047;28;20043;-73
2022/09/04 04:36:28;;;;;;;10.02;6.30;;;18.20;69.90;;;;;;5076004;28;20017;-73
2022/09/04 04:38:53;;;;;;;;;;;18.20;69.80;;;;;;5076529;28;20080;-73
2022/09/04 04:42:05;;;;;;;6.30;4.50;;;18.10;69.80;;;;;;5075801;28;19958;-73
2022/09/04 04:45:48;;;;;;;9.20;6.35;;;17.90;69.70;;;;;;5075872;28;20021;-73
2022/09/04 04:47:55;;;;;;;9.27;6.85;;;17.80;70.00;;;;;;5075600;28;20029;-73
2022/09/04 04:50:39;;;;;;;10.00;6.35;;;17.90;69.80;;;;;;5075724;28;20028;-73
2022/09/04 04:53:15;;;;;;;9.73;7.25;;;17.70;70.30;;;;;;5075806;28;20036;-73
2022/09/04 04:56:10;;;;;;;11.38;6.90;;;17.70;69.80;;;;;;5075769;28;20029;-73
2022/09/04 04:59:03;;;;;;;9.40;6.65;;;17.60;70.10;;;;;;5075467;28;20088;-73
2022/09/04 05:01:42;;;;;;;11.35;6.75;;;17.80;70.60;;;;;;5075552;28;20067;-74
2022/09/04 05:04:12;;;;;;;10.43;6.38;;;18.00;70.50;;;;;;5075462;28;20013;-73
2022/09/04 05:06:47;;;;;;;9.65;6.65;;;18.00;70.70;;;;;;5075422;28;20014;-73
2022/09/04 05:09:33;;;;;;;11.50;7.00;;;18.00;71.30;;;;;;5075365;28;20032;-73
2022/09/04 05:12:15;;;;;;;10.93;7.72;;;17.90;71.50;;;;;;5075012;28;20033;-73
2022/09/04 05:14:58;;;;;;;9.60;7.15;;;18.10;71.40;;;;;;5074623;28;20058;-74
2022/09/04 05:17:42;;;;;;;8.75;6.55;;;18.10;70.90;;;;;;5075242;28;20032;-73
2022/09/04 05:20:33;;;;;;;9.15;6.15;;;18.10;70.20;;;;;;5075326;28;20025;-73
2022/09/04 05:23:14;;;;;;;9.73;7.00;;;18.10;69.90;;;;;;5075170;28;20095;-73
2022/09/04 05:25:52;;;;;;;10.95;6.82;;;18.10;69.80;;;;;;5075035;28;20025;-73
2022/09/04 05:28:22;;;;;;;11.13;7.30;;;18.10;70.30;;;;;;5074957;28;20027;-73
2022/09/04 05:31:26;;;;;;;13.68;7.60;;;18.10;70.70;;;;;;5075099;28;20009;-74
2022/09/04 05:34:11;;;;;;;11.75;7.78;;;18.10;71.30;;;;;;5055573;28;20038;-73
2022/09/04 05:36:55;;;;;;;11.30;8.10;;;18.00;71.50;;;;;;5074853;28;20013;-73
2022/09/04 05:39:38;;;;;;;12.90;7.78;;;18.00;71.70;;;;;;5074787;28;20032;-74
2022/09/04 05:42:22;;;;;;;12.05;8.23;;;18.00;71.80;;;;;;5074680;28;20031;-73
2022/09/04 05:45:06;;;;;;;11.35;7.18;;;18.10;71.50;;;;;;5074840;28;20044;-74
2022/09/04 05:47:50;;;;;;;14.38;8.10;;;18.30;71.30;;;;;;5074605;28;20051;-73
2022/09/04 05:50:25;;;;;;;12.07;8.25;;;18.30;71.40;;;;;;5074610;28;20023;-73
2022/09/04 05:53:08;;;;;;;11.90;8.82;;;18.40;71.30;;;;;;5074483;28;20088;-73
2022/09/04 05:55:55;;;;;;;15.80;9.50;;;18.50;71.60;;;;;;5074601;28;20028;-74
2022/09/04 05:58:58;;;;;;;16.48;9.38;;;18.50;72.00;;;;;;5074604;28;20106;-73
2022/09/04 06:01:49;;;;;;;19.40;10.40;;;18.50;72.70;;;;;;5074187;28;20059;-73
2022/09/04 06:04:41;;;;;;;17.83;10.27;;;18.40;73.10;;;;;;5074296;28;20021;-72
2022/09/04 06:07:38;;;;;;;17.83;11.18;;;18.40;73.30;;;;;;5074292;28;20017;-72
2022/09/04 06:10:28;;;;;;;19.20;11.35;;;18.40;73.60;;;;;;5074206;28;20039;-72
2022/09/04 06:13:20;;;;;;;15.63;10.55;;;18.40;74.20;;;;;;5074287;28;20029;-72
2022/09/04 06:16:13;;;;;;;16.07;10.33;;;18.40;74.10;;;;;;5074148;28;20029;-72
2022/09/04 06:18:57;;;;;;;16.35;10.60;;;18.50;74.30;;;;;;5074163;28;20029;-72
2022/09/04 06:21:57;;;;;;;20.58;11.05;;;18.50;74.00;;;;;;5073912;28;20478;-72
2022/09/04 06:24:58;;;;;;;20.77;11.38;;;18.60;74.10;;;;;;5073995;28;20017;-73
2022/09/04 06:27:32;;;;;;;24.63;13.10;;;18.60;74.70;;;;;;5073076;28;20021;-72
2022/09/04 06:30:06;;;;;;;20.08;12.38;;;18.60;74.70;;;;;;5073848;28;20408;-72
2022/09/04 06:32:51;;;;;;;19.02;12.77;;;18.60;75.30;;;;;;5073773;28;20021;-72
2022/09/04 06:35:35;;;;;;;20.08;12.68;;;18.60;75.00;;;;;;5073915;28;20024;-72
2022/09/04 06:38:12;;;;;;;18.67;12.30;;;18.70;75.20;;;;;;5073874;28;20047;-72
2022/09/04 06:40:53;;;;;;;19.30;12.55;;;18.70;75.50;;;;;;5073679;28;20029;-72
2022/09/04 06:43:38;;;;;;;21.90;13.23;;;18.70;75.20;;;;;;5073722;28;20033;-72
2022/09/04 06:46:22;;;;;;;19.83;12.75;;;18.80;75.30;;;;;;5073608;28;20025;-73
2022/09/04 06:48:53;;;;;;;19.02;12.75;;;18.80;75.50;;;;;;5073644;28;20104;-72
2022/09/04 06:51:25;;;;;;;19.73;13.57;;;18.80;75.50;;;;;;5073511;28;20039;-72
2022/09/04 06:54:26;;;;;;;20.05;12.45;;;18.80;76.30;;;;;;5073493;28;20029;-72
2022/09/04 06:57:10;;;;;;;20.77;12.77;;;18.80;76.00;;;;;;5073465;28;20035;-73
2022/09/04 06:59:45;;;;;;;20.33;12.85;;;18.80;76.50;;;;;;5073198;28;20053;-73
2022/09/04 07:02:32;;;;;;;21.63;13.65;;;18.80;77.30;;;;;;5073256;28;20055;-73
2022/09/04 07:05:09;;;;;;;18.85;12.43;;;18.90;76.70;;;;;;5073337;28;20025;-73
2022/09/04 07:07:55;;;;;;;24.00;13.38;;;19.00;76.70;;;;;;5073255;28;20028;-73
2022/09/04 07:10:50;;;;;;;20.13;12.50;;;19.00;76.50;;;;;;5073276;28;20028;-73
2022/09/04 07:13:34;;;;;;;22.83;11.35;;;19.10;76.90;;;;;;5068554;28;20037;-72
2022/09/04 07:16:19;;;;;;;19.33;11.68;;;19.10;77.40;;;;;;5073189;28;20017;-73
2022/09/04 07:19:28;;;;;;;17.52;11.32;;;19.20;77.10;;;;;;5073161;28;20025;-72
2022/09/04 07:21:54;;;;;;;22.00;11.70;;;19.30;77.30;;;;;;5051249;28;20035;-72
2022/09/04 07:24:44;;;;;;;16.75;11.45;;;19.30;77.40;;;;;;5068592;28;20037;-72
2022/09/04 07:27:35;;;;;;;20.38;11.93;;;19.40;77.60;;;;;;5073057;28;20025;-72
2022/09/04 07:30:02;;;;;;;20.67;12.00;;;19.40;77.70;;;;;;5072972;28;20013;-72
2022/09/04 07:32:37;;;;;;;21.60;12.65;;;19.50;77.50;;;;;;5072949;28;20033;-72
2022/09/04 07:35:20;;;;;;;18.48;12.23;;;19.60;77.70;;;;;;5072971;28;20079;-72
2022/09/04 07:37:51;;;;;;;19.50;12.32;;;19.60;77.40;;;;;;5074303;28;20037;-72
2022/09/04 07:40:40;;;;;;;18.77;12.32;;;19.80;77.60;;;;;;5077007;28;20426;-73
2022/09/04 07:43:24;;;;;;;15.82;11.52;;;19.90;77.50;;;;;;5076535;28;20048;-72
2022/09/04 07:46:02;;;;;;;18.50;11.63;;;20.00;77.60;;;;;;5077113;28;20036;-72
2022/09/04 07:48:40;;;;;;;17.55;11.35;;;20.00;76.70;;;;;;5076910;28;20065;-73
2022/09/04 07:51:16;;;;;;;20.95;11.85;;;20.10;76.40;;;;;;5076846;28;20025;-72
2022/09/04 07:54:23;;;;;;;17.25;11.18;;;20.20;76.30;;;;;;5076822;28;20078;-73
2022/09/04 07:57:10;;;;;;;17.13;11.98;;;20.40;76.60;;;;;;5076419;28;20041;-73
2022/09/04 08:00:00;;;;;;;15.75;10.82;;;20.40;76.10;;;;;;5076587;28;20068;-72
2022/09/04 08:03:09;;;;;;;17.10;11.55;;;20.60;76.10;;;;;;5076582;28;20108;-73
2022/09/04 08:05:50;;;;;;;17.75;11.07;;;20.70;76.20;;;;;;5076587;28;20029;-73
2022/09/04 08:08:46;;;;;;;14.00;10.88;;;20.70;75.30;;;;;;5076749;28;20041;-73
2022/09/04 08:11:31;;;;;;;16.38;10.77;;;20.80;75.50;;;;;;5076467;28;20108;-73
2022/09/04 08:14:17;;;;;;;14.90;9.45;;;21.00;74.00;;;;;;5076413;28;20067;-73
2022/09/04 08:16:56;;;;;;;16.45;10.48;;;21.10;74.70;;;;;;5076395;28;20036;-73
2022/09/04 08:19:31;;;;;;;14.35;10.05;;;21.10;74.30;;;;;;5076365;28;20033;-73
2022/09/04 08:21:56;;;;;;;12.88;8.63;;;21.20;73.60;;;;;;5076224;28;20025;-73
2022/09/04 08:24:25;;;;;;;15.32;9.48;;;21.30;73.70;;;;;;5076128;28;20089;-73
2022/09/04 08:27:02;;;;;;;15.15;9.38;;;21.30;73.90;;;;;;5076107;28;20017;-73
2022/09/04 08:29:34;;;;;;;14.73;9.25;;;21.50;73.40;;;;;;5076092;28;20025;-73
2022/09/04 08:32:27;;;;;;;17.85;8.90;;;21.50;74.10;;;;;;5076220;28;20084;-73
2022/09/04 08:35:11;;;;;;;13.57;8.90;;;21.70;73.60;;;;;;5076083;28;20040;-73
2022/09/04 08:37:41;;;;;;;14.55;8.65;;;21.80;72.80;;;;;;5075950;28;20024;-73
2022/09/04 08:40:28;;;;;;;14.63;9.35;;;21.80;72.30;;;;;;5076081;28;20089;-73
2022/09/04 08:43:40;;;;;;;13.85;9.73;;;21.90;72.40;;;;;;5075826;28;20060;-73
2022/09/04 08:46:47;;;;;;;13.98;8.73;;;22.00;72.40;;;;;;5054229;28;20029;-73
2022/09/04 08:49:34;;;;;;;13.35;8.95;;;22.00;71.40;;;;;;5074687;28;20040;-73
2022/09/04 08:52:09;;;;;;;17.05;10.00;;;22.20;71.30;;;;;;5075869;28;20112;-72
2022/09/04 08:55:10;;;;;;;18.23;9.30;;;22.30;71.70;;;;;;5075797;28;20029;-73
2022/09/04 08:58:01;;;;;;;14.43;9.57;;;22.50;71.70;;;;;;5074318;28;20043;-73
2022/09/04 09:00:52;;;;;;;17.45;10.18;;;22.70;71.30;;;;;;5075449;28;20064;-72
2022/09/04 09:03:55;;;;;;;15.23;9.60;;;22.90;70.70;;;;;;5075507;28;20025;-73
2022/09/04 09:06:50;;;;;;;14.00;9.02;;;22.90;68.90;;;;;;5075429;28;20032;-73
2022/09/04 09:09:37;;;;;;;13.02;8.35;;;23.00;68.70;;;;;;5075563;28;20051;-70
2022/09/04 09:12:40;;;;;;;11.45;7.78;;;23.10;66.80;;;;;;5075443;28;20161;-71
2022/09/04 09:15:38;;;;;;;10.85;7.03;;;23.30;67.30;;;;;;5075291;28;20031;-73
2022/09/04 09:18:27;;;;;;;15.30;9.10;;;23.40;66.60;;;;;;5075210;28;20029;-72
2022/09/04 09:21:40;;;;;;;13.20;8.07;;;23.50;65.20;;;;;;5075165;28;20028;-70
2022/09/04 09:24:15;;;;;;;13.90;8.52;;;23.60;66.20;;;;;;5068786;28;20064;-70
2022/09/04 09:27:19;;;;;;;14.90;7.25;;;23.70;66.40;;;;;;5075060;28;20017;-70
2022/09/04 09:30:06;;;;;;;13.55;8.90;;;23.90;65.70;;;;;;5074910;28;20024;-70
2022/09/04 09:32:59;;;;;;;10.95;7.93;;;23.90;64.20;;;;;;5074946;28;20025;-71
2022/09/04 09:35:54;;;;;;;10.77;7.45;;;24.00;64.60;;;;;;5074947;28;20108;-70
2022/09/04 09:38:35;;;;;;;11.43;7.00;;;24.10;63.30;;;;;;5075014;28;20043;-71
2022/09/04 09:41:25;;;;;;;12.68;7.15;;;24.20;64.60;;;;;;5073761;28;20029;-71
2022/09/04 09:44:36;;;;;;;10.75;6.22;;;24.30;64.90;;;;;;5074794;28;20025;-71
2022/09/04 09:47:32;;;;;;;8.68;6.10;;;24.40;63.30;;;;;;5074687;28;20020;-71
2022/09/04 09:50:19;;;;;;;9.35;6.20;;;24.40;61.40;;;;;;5074595;28;20025;-70
2022/09/04 09:52:52;;;;;;;7.75;5.07;;;24.50;62.20;;;;;;5074614;28;20021;-71
2022/09/04 09:55:45;;;;;;;7.28;4.85;;;24.60;60.50;;;;;;5074540;28;20028;-70
2022/09/04 09:58:26;;;;;;;;;;;24.60;60.20;;;;;;5075054;28;20032;-71
2022/09/04 10:00:51;;;;;;;10.00;5.72;;;24.70;61.10;;;;;;5074142;28;19939;-71
2022/09/04 10:03:32;;;;;;;9.93;5.50;;;24.70;61.30;;;;;;5073314;28;20085;-71
2022/09/04 10:06:28;;;;;;;7.35;4.95;;;24.80;62.00;;;;;;5074433;28;20021;-70
2022/09/04 10:09:19;;;;;;;10.40;5.40;;;25.00;60.90;;;;;;5074270;28;20033;-71
2022/09/04 10:11:54;;;;;;;9.48;5.40;;;25.10;60.20;;;;;;5073203;28;20049;-71
2022/09/04 10:14:40;;;;;;;7.47;4.95;;;25.10;58.40;;;;;;5074142;28;20025;-71
2022/09/04 10:17:21;;;;;;;9.82;6.03;;;25.00;58.30;;;;;;5074251;28;20089;-71
2022/09/04 10:20:35;;;;;;;8.18;5.68;;;25.00;59.10;;;;;;5074175;28;20025;-71
2022/09/04 10:23:19;;;;;;;9.85;5.32;;;24.80;59.30;;;;;;5069201;28;20049;-71
2022/09/04 10:25:57;;;;;;;9.18;6.45;;;24.70;59.30;;;;;;5073934;28;20029;-71
2022/09/04 10:28:41;;;;;;;9.60;5.82;;;24.70;60.60;;;;;;5073944;28;20035;-71
2022/09/04 10:31:20;;;;;;;10.10;5.88;;;24.70;60.90;;;;;;5073820;28;20028;-71
2022/09/04 10:34:09;;;;;;;12.02;6.75;;;24.80;61.00;;;;;;5073898;28;20025;-71
2022/09/04 10:37:12;;;;;;;11.40;6.25;;;24.70;60.50;;;;;;5073760;28;20021;-71
2022/09/04 10:42:53;;;;;;;11.52;6.20;;;24.70;60.40;;;;;;5073674;28;20000;-71
2022/09/04 10:45:28;;;;;;;7.18;4.03;;;24.50;60.30;;;;;;5073602;28;20029;-71
2022/09/04 10:48:18;;;;;;;8.90;5.00;;;24.50;60.70;;;;;;5073735;28;20032;-71
2022/09/04 10:51:19;;;;;;;9.00;5.15;;;24.50;60.70;;;;;;5073537;28;20036;-70
2022/09/04 10:54:27;;;;;;;7.13;4.38;;;24.50;60.50;;;;;;5073641;28;20021;-71
2022/09/04 10:57:21;;;;;;;8.80;3.92;;;24.50;60.20;;;;;;5073298;28;20045;-71
2022/09/04 10:59:50;;;;;;;5.75;3.67;;;24.60;60.20;;;;;;5073163;28;20052;-71
2022/09/04 11:02:45;;;;;;;7.43;3.90;;;24.70;59.30;;;;;;5073269;28;20033;-71
2022/09/04 11:05:23;;;;;;;8.02;3.28;;;24.80;59.80;;;;;;5073377;28;20080;-71
2022/09/04 11:07:57;;;;;;;6.45;3.45;;;24.90;59.70;;;;;;5073344;28;20017;-71
2022/09/04 11:10:44;;;;;;;9.02;4.15;;;25.00;58.90;;;;;;5073237;28;20029;-71
2022/09/04 11:13:22;;;;;;;7.88;4.57;;;25.00;59.10;;;;;;5072814;28;20037;-71
2022/09/04 11:15:51;;;;;;;7.60;3.78;;;25.00;58.40;;;;;;5073213;28;20029;-71
2022/09/04 11:18:52;;;;;;;5.10;3.30;;;25.10;58.30;;;;;;5073288;28;20021;-71
2022/09/04 11:21:48;;;;;;;6.45;3.42;;;25.20;57.70;;;;;;5073246;28;20021;-71
2022/09/04 11:24:13;;;;;;;3.08;2.40;;;25.30;58.90;;;;;;5073313;28;20095;-71
2022/09/04 11:27:06;;;;;;;5.28;2.17;;;25.20;58.20;;;;;;5073087;28;20053;-71
2022/09/04 11:29:44;;;;;;;4.22;2.28;;;25.30;57.60;;;;;;5073077;28;20025;-71
2022/09/04 11:32:57;;;;;;;3.75;2.30;;;25.30;56.90;;;;;;5072122;28;20036;-71
2022/09/04 11:35:40;;;;;;;7.70;2.25;;;25.30;55.90;;;;;;5068030;28;20045;-71
2022/09/04 11:38:11;;;;;;;6.00;2.55;;;25.20;56.90;;;;;;5073154;28;20032;-71
2022/09/04 11:40:43;;;;;;;4.93;2.50;;;25.20;56.60;;;;;;5073118;28;20029;-71
2022/09/04 11:43:43;;;;;;;3.57;2.53;;;25.20;56.20;;;;;;5072887;28;20096;-71
2022/09/04 11:46:33;;;;;;;4.38;2.22;;;25.30;56.60;;;;;;5072961;28;20024;-71
2022/09/04 11:49:29;;;;;;;5.32;2.70;;;25.20;57.60;;;;;;5073083;28;20025;-71
2022/09/04 11:52:09;;;;;;;3.72;2.58;;;25.20;57.40;;;;;;5072923;28;20036;-71
2022/09/04 11:55:29;;;;;;;5.65;2.70;;;25.20;57.70;;;;;;5072865;28;20029;-71
2022/09/04 11:58:20;;;;;;;3.40;2.35;;;25.20;57.60;;;;;;5072951;28;20017;-71
2022/09/04 12:01:19;;;;;;;3.97;1.95;;;25.20;55.20;;;;;;5072661;28;20377;-71
2022/09/04 12:04:04;;;;;;;4.15;2.00;;;25.20;54.70;;;;;;5071724;28;20029;-71
2022/09/04 12:06:38;;;;;;;2.67;1.60;;;25.20;55.90;;;;;;5072791;28;20029;-71
2022/09/04 12:09:30;;;;;;;3.95;1.73;;;25.20;54.00;;;;;;5072905;28;20044;-70
2022/09/04 12:12:38;;;;;;;5.07;2.50;;;25.30;54.20;;;;;;5072799;28;20029;-71
2022/09/04 12:15:31;;;;;;;4.43;2.15;;;25.40;53.50;;;;;;5071672;28;20033;-71
2022/09/04 12:18:24;;;;;;;6.85;2.20;;;25.50;54.90;;;;;;5072761;28;20032;-71
2022/09/04 12:21:36;;;;;;;3.30;2.00;;;25.70;54.50;;;;;;5072785;28;20031;-71
2022/09/04 12:24:26;;;;;;;3.83;2.10;;;25.80;54.60;;;;;;5074370;28;20106;-71
2022/09/04 12:27:30;;;;;;;3.10;2.10;;;25.90;52.80;;;;;;5075247;28;20033;-70
2022/09/04 12:30:08;;;;;;;7.10;1.80;;;26.10;52.90;;;;;;5076042;28;20032;-71
2022/09/04 12:33:01;;;;;;;1.70;1.50;;;26.30;50.40;;;;;;5075126;28;20059;-70
2022/09/04 12:35:47;;;;;;;2.28;1.52;;;26.30;49.80;;;;;;5076087;28;20052;-71
2022/09/04 12:38:23;;;;;;;2.38;1.42;;;26.40;49.30;;;;;;5076056;28;20036;-71
2022/09/04 12:41:18;;;;;;;3.25;1.75;;;26.50;48.30;;;;;;5075036;28;20048;-71
2022/09/04 12:44:07;;;;;;;3.88;1.83;;;26.60;48.70;;;;;;5069308;28;20037;-70
2022/09/04 12:46:49;;;;;;;2.38;1.77;;;26.70;48.20;;;;;;5076015;28;20013;-70
2022/09/04 12:49:56;;;;;;;2.85;1.90;;;26.80;48.30;;;;;;5075838;28;20029;-71
2022/09/04 12:52:40;;;;;;;3.83;1.80;;;26.70;47.60;;;;;;5074855;28;20029;-71
2022/09/04 12:55:36;;;;;;;3.78;1.98;;;26.70;48.20;;;;;;5074747;28;20097;-71
2022/09/04 12:58:11;;;;;;;4.03;1.50;;;26.80;47.90;;;;;;5075668;28;20024;-70
2022/09/04 13:00:57;;;;;;;3.60;2.10;;;26.70;46.30;;;;;;5074439;28;20105;-70
2022/09/04 13:03:38;;;;;;;2.60;1.95;;;26.80;45.50;;;;;;5075497;28;20024;-71
2022/09/04 13:06:39;;;;;;;3.92;1.98;;;27.00;43.90;;;;;;5075398;28;20028;-71
2022/09/04 13:09:14;;;;;;;4.07;2.20;;;27.10;46.10;;;;;;5075580;28;20073;-71
2022/09/04 13:11:51;;;;;;;5.72;2.22;;;27.20;43.30;;;;;;5075557;28;20033;-70
2022/09/04 13:14:31;;;;;;;3.13;1.80;;;27.20;43.20;;;;;;5075505;28;20028;-71
2022/09/04 13:17:09;;;;;;;4.13;2.33;;;27.20;43.30;;;;;;5075253;28;20047;-71
2022/09/04 13:19:53;;;;;;;3.85;2.03;;;27.20;43.70;;;;;;5075390;28;20049;-71
2022/09/04 13:22:29;;;;;;;3.92;2.22;;;27.20;43.50;;;;;;5073201;28;20037;-70
2022/09/04 13:25:03;;;;;;;2.70;2.25;;;27.00;44.20;;;;;;5075167;28;20024;-70
2022/09/04 13:27:33;;;;;;;2.95;2.25;;;27.00;45.00;;;;;;5075134;28;20045;-71
2022/09/04 13:30:04;;;;;;;3.53;2.30;;;27.10;44.40;;;;;;5075044;28;20047;-71
2022/09/04 13:32:51;;;;;;;3.95;2.17;;;27.20;43.80;;;;;;5075014;28;20052;-70
2022/09/04 13:36:01;;;;;;;3.40;2.10;;;27.30;43.50;;;;;;5074448;28;20084;-70
2022/09/04 13:38:51;;;;;;;3.70;2.70;;;27.30;40.50;;;;;;5072304;28;20072;-70
2022/09/04 13:41:23;;;;;;;3.28;2.33;;;27.20;41.30;;;;;;5074893;28;20029;-70
2022/09/04 13:44:11;;;;;;;6.90;2.30;;;27.30;43.50;;;;;;5074982;28;20041;-70
2022/09/04 13:46:50;;;;;;;6.38;2.33;;;27.50;42.70;;;;;;5074744;28;20028;-69
2022/09/04 13:49:24;;;;;;;2.80;2.50;;;27.40;43.20;;;;;;5073665;28;20024;-70
2022/09/04 13:52:06;;;;;;;2.47;2.13;;;27.40;42.90;;;;;;5074686;28;20025;-70
2022/09/04 13:54:58;;;;;;;4.82;2.50;;;27.60;42.60;;;;;;5074790;28;20029;-69
2022/09/04 13:57:28;;;;;;;3.10;2.17;;;27.60;41.30;;;;;;5074728;28;20099;-70
2022/09/04 14:00:07;;;;;;;5.63;2.53;;;27.50;43.70;;;;;;5073485;28;20063;-69
2022/09/04 14:02:35;;;;;;;5.88;2.45;;;27.60;41.60;;;;;;5073716;28;20051;-70
2022/09/04 14:05:17;;;;;;;3.00;2.10;;;27.60;43.70;;;;;;5074389;28;20025;-70
2022/09/04 14:07:46;;;;;;;2.97;2.00;;;27.60;42.70;;;;;;5074535;28;20052;-70
2022/09/04 14:10:37;;;;;;;5.80;2.30;;;27.70;42.10;;;;;;5074352;28;20040;-70
2022/09/04 14:13:29;;;;;;;5.35;2.03;;;27.80;42.60;;;;;;5064491;28;20040;-71
2022/09/04 14:16:07;;;;;;;2.28;2.00;;;27.70;42.60;;;;;;5074333;28;20019;-70
2022/09/04 14:19:00;;;;;;;3.22;2.22;;;27.60;42.10;;;;;;5073153;28;20049;-70